Time;durP1;ratioP1;P1;durP2;ratioP2;P2;SDS_P1;SDS_P2;PMS_P1;PMS_P2;Temp;Humidity;BMP_temperature;BMP_pressure;BME280_temperature;BME280_humidity;BME280_pressure;Samples;Min_cycle;Max_cycle;Signal;HPM_P1;HPM_P2
2022/05/16 00:01:01;;;;;;;;;;;17.70;72.00;;;16.92;66.93;96550.41;4073744;34;20091;-86
2022/05/16 00:03:30;;;;;;;;;;;17.70;71.90;;;16.91;67.16;96554.31;4052039;34;20247;-86
2022/05/16 00:05:58;;;;;;;;;;;17.70;71.90;;;16.92;67.20;96555.94;4051709;34;20027;-86
2022/05/16 00:08:27;;;;;;;;;;;17.70;72.00;;;16.91;67.14;96560.63;4073680;34;19904;-86
2022/05/16 00:10:58;;;;;;;;;;;17.70;71.90;;;16.90;67.10;96552.66;4051897;34;20052;-86
2022/05/16 00:13:26;;;;;;;;;;;17.70;71.80;;;16.90;66.91;96552.66;4095596;34;20054;-85
2022/05/16 00:15:56;;;;;;;;;;;17.70;71.80;;;16.89;67.05;96549.09;4073296;34;20130;-86
2022/05/16 00:18:25;;;;;;;;;;;17.70;71.90;;;16.88;66.92;96553.78;4073431;34;20246;-86
2022/05/16 00:20:53;;;;;;;;;;;17.70;71.90;;;16.88;66.96;96551.00;4073501;34;19904;-85
2022/05/16 00:23:22;;;;;;;;;;;17.70;71.80;;;16.90;66.79;96552.66;4051849;34;20055;-86
2022/05/16 00:25:50;;;;;;;;;;;17.70;71.90;;;16.85;67.02;96550.81;4095549;34;20380;-86
2022/05/16 00:28:20;;;;;;;;;;;17.60;71.70;;;16.86;67.09;96547.72;4072935;34;19904;-88
2022/05/16 00:30:49;;;;;;;;;;;17.70;71.80;;;16.87;66.88;96552.13;4073327;34;20080;-86
2022/05/16 00:33:17;;;;;;;;;;;17.70;71.70;;;16.86;67.05;96553.25;4095547;34;20013;-86
2022/05/16 00:35:46;;;;;;;;;;;17.60;71.60;;;16.86;66.77;96546.91;4073387;34;20395;-85
2022/05/16 00:38:15;;;;;;;;;;;17.70;71.60;;;16.86;66.75;96560.75;4073020;34;20384;-86
2022/05/16 00:40:43;;;;;;;;;;;17.60;71.40;;;16.85;66.84;96551.59;4073188;34;19904;-86
2022/05/16 00:43:14;;;;;;;;;;;17.60;71.50;;;16.83;66.80;96548.34;4097120;34;19911;-85
2022/05/16 00:45:45;;;;;;;;;;;17.60;71.30;;;16.84;66.64;96555.53;4075715;34;19941;-86
2022/05/16 00:48:13;;;;;;;;;;;17.60;71.20;;;16.84;66.63;96549.16;4074829;34;19904;-87
2022/05/16 00:50:42;;;;;;;;;;;17.60;71.20;;;16.83;66.30;96550.28;4075514;34;19905;-86
2022/05/16 00:53:10;;;;;;;;;;;17.60;71.20;;;16.84;66.59;96551.91;4075602;34;20140;-85
2022/05/16 00:55:39;;;;;;;;;;;17.60;71.00;;;16.82;66.41;96543.94;4097524;34;20023;-85
2022/05/16 00:58:11;;;;;;;;;;;17.60;71.10;;;16.82;66.40;96555.00;4074833;34;20410;-86
2022/05/16 01:00:41;;;;;;;;;;;17.60;71.10;;;16.82;66.39;96552.25;4075464;34;19904;-85
2022/05/16 01:05:59;;;;;;;;;;;17.60;71.00;;;16.81;66.46;96550.59;4075084;34;19905;-85
2022/05/16 01:08:30;;;;;;;;;;;17.60;70.90;;;16.81;66.04;96547.84;4075259;34;20027;-86
2022/05/16 01:11:01;;;;;;;;;;;17.60;70.80;;;16.80;65.91;96545.34;4075115;34;19912;-86
2022/05/16 01:13:30;;;;;;;;;;;17.60;70.80;;;16.79;66.07;96541.78;4097340;34;19905;-85
2022/05/16 01:16:00;;;;;;;;;;;17.60;70.70;;;16.79;66.36;96544.53;4096894;34;20162;-85
2022/05/16 01:18:30;;;;;;;;;;;17.60;70.70;;;16.79;66.00;96544.53;4075103;34;19927;-85
2022/05/16 01:21:22;;;;;;;;;;;17.60;70.80;;;16.79;66.29;96540.94;4075163;34;19904;-85
2022/05/16 01:23:55;;;;;;;;;;;17.60;70.80;;;16.78;66.08;96542.91;4075187;34;20054;-86
2022/05/16 01:26:29;;;;;;;;;;;17.60;70.70;;;16.78;66.41;96545.66;4096838;34;19905;-85
2022/05/16 01:28:58;;;;;;;;;;;17.60;70.70;;;16.74;66.12;96536.31;4097156;34;20155;-86
2022/05/16 01:31:26;;;;;;;;;;;17.60;70.80;;;16.77;65.75;96544.00;4075096;34;19905;-85
2022/05/16 01:33:55;;;;;;;;;;;17.60;70.80;;;16.77;66.17;96538.50;4074662;34;20243;-86
2022/05/16 01:36:23;;;;;;;;;;;17.60;70.70;;;16.77;66.10;96538.50;4074734;34;20493;-86
2022/05/16 01:38:54;;;;;;;;;;;17.60;70.60;;;16.77;66.05;96535.72;4074965;34;20055;-86
2022/05/16 01:41:24;;;;;;;;;;;17.60;70.70;;;16.77;65.95;96546.78;4074972;34;19911;-85
2022/05/16 01:43:56;;;;;;;;;;;17.60;70.60;;;16.75;66.22;96529.66;4074971;34;19911;-86
2022/05/16 01:46:26;;;;;;;;;;;17.50;70.60;;;16.76;66.11;96530.50;4096548;34;19912;-85
2022/05/16 01:48:55;;;;;;;;;;;17.60;70.70;;;16.74;66.20;96533.56;4097104;34;19927;-85
2022/05/16 01:51:24;;;;;;;;;;;17.50;70.60;;;16.75;65.98;96534.41;4074924;34;19905;-86
2022/05/16 01:53:54;;;;;;;;;;;17.60;70.60;;;16.75;65.98;96535.19;4074382;34;20032;-84
2022/05/16 01:56:23;;;;;;;;;;;17.50;70.60;;;16.74;65.95;96533.56;4096361;34;20175;-86
2022/05/16 01:58:52;;;;;;;;;;;17.50;70.50;;;16.74;65.98;96527.22;4074883;34;19993;-86
2022/05/16 02:01:21;;;;;;;;;;;17.60;70.50;;;16.74;65.90;96528.03;4074794;34;20144;-87
2022/05/16 02:03:50;;;;;;;;;;;17.60;70.60;;;16.74;66.04;96528.03;4074762;34;20124;-85
2022/05/16 02:06:18;;;;;;;;;;;17.50;70.50;;;16.74;65.92;96527.22;4096285;34;19904;-85
2022/05/16 02:08:48;;;;;;;;;;;17.50;70.50;;;16.73;65.74;96526.38;4052893;34;20049;-85
2022/05/16 02:11:18;;;;;;;;;;;17.50;70.50;;;16.73;66.14;96534.69;4052796;34;19917;-86
2022/05/16 02:13:47;;;;;;;;;;;17.50;70.50;;;16.72;65.94;96524.75;4096599;34;19928;-84
2022/05/16 02:16:15;;;;;;;;;;;17.50;70.60;;;16.70;66.01;96527.81;4052291;34;20148;-85
2022/05/16 02:18:44;;;;;;;;;;;17.50;70.60;;;16.72;66.19;96525.56;4096341;34;19912;-85
2022/05/16 02:26:47;;;;;;;;;;;17.50;70.60;;;16.71;66.00;96520.38;4074170;34;20220;-86
2022/05/16 02:29:17;;;;;;;;;;;17.50;70.70;;;16.72;65.89;96535.78;4074460;34;20120;-86
2022/05/16 02:31:47;;;;;;;;;;;17.50;70.70;;;16.70;65.70;96515.94;4096472;34;20079;-84
2022/05/16 02:34:16;;;;;;;;;;;17.50;70.60;;;16.70;65.90;96521.47;4074354;34;19905;-85
2022/05/16 02:36:46;;;;;;;;;;;17.50;70.50;;;16.68;65.71;96524.53;4095547;34;19985;-85
2022/05/16 02:39:17;;;;;;;;;;;17.50;70.70;;;16.70;65.85;96527.00;4073823;34;19904;-85
2022/05/16 02:41:47;;;;;;;;;;;17.50;70.60;;;16.69;65.70;96526.16;4073984;34;19905;-86
2022/05/16 02:47:33;;;;;;;;;;;17.50;70.50;;;16.69;65.75;96528.13;4051398;34;19904;-85
2022/05/16 02:50:02;;;;;;;;;;;17.50;70.40;;;16.69;66.24;96530.91;4073271;34;19923;-85
2022/05/16 02:52:31;;;;;;;;;;;17.50;70.60;;;16.68;66.19;96526.50;4073438;34;20169;-85
2022/05/16 02:55:00;;;;;;;;;;;17.50;70.50;;;16.68;65.94;96526.50;4074223;34;20000;-84
2022/05/16 02:57:30;;;;;;;;;;;17.50;70.50;;;16.68;65.86;96527.28;4051843;34;19904;-85
2022/05/16 02:59:59;;;;;;;;;;;17.50;70.60;;;16.68;65.86;96537.53;4052362;34;19904;-85
2022/05/16 03:02:28;;;;;;;;;;;17.50;70.50;;;16.68;65.75;96530.06;4074117;34;20340;-85
2022/05/16 03:04:56;;;;;;;;;;;17.40;70.30;;;16.68;66.05;96534.78;4096732;34;20318;-86
2022/05/16 03:07:25;;;;;;;;;;;17.40;70.40;;;16.66;65.94;96532.31;4095968;34;19912;-86
2022/05/16 03:09:54;;;;;;;;;;;17.50;70.50;;;16.67;65.71;96533.13;4073864;34;19904;-86
2022/05/16 03:12:22;;;;;;;;;;;17.50;70.40;;;16.67;65.70;96538.66;4061520;34;19964;-86
2022/05/16 03:14:52;;;;;;;;;;;17.50;70.40;;;16.66;65.72;96532.31;4096087;34;19926;-85
2022/05/16 03:17:21;;;;;;;;;;;17.50;70.30;;;16.67;65.64;96533.94;4073424;34;19904;-86
2022/05/16 03:19:50;;;;;;;;;;;17.50;70.30;;;16.68;65.63;96529.25;4073803;34;20180;-84
2022/05/16 03:22:19;;;;;;;;;;;17.50;70.20;;;16.68;65.67;96530.06;4096680;34;19904;-85
2022/05/16 03:25:09;;;;;;;;;;;17.50;70.20;;;16.69;65.26;96536.44;4074132;34;19911;-85
2022/05/16 03:27:38;;;;;;;;;;;17.50;70.00;;;16.69;65.38;96540.00;4073474;34;19912;-86
2022/05/16 03:30:11;;;;;;;;;;;17.50;69.90;;;16.70;65.36;96536.09;4073588;34;19939;-86
2022/05/16 03:32:40;;;;;;;;;;;17.50;69.90;;;16.71;65.28;96545.25;4073474;34;20232;-86
2022/05/16 03:35:08;;;;;;;;;;;17.50;69.90;;;16.71;65.41;96548.00;4095376;34;19905;-85
2022/05/16 03:37:37;;;;;;;;;;;17.50;70.00;;;16.73;65.75;96540.22;4095083;34;20001;-86
2022/05/16 03:42:59;;;;;;;;;;;17.50;69.80;;;16.75;65.43;96543.50;4096772;34;19911;-85
2022/05/16 03:45:54;;;;;;;;;;;17.50;69.90;;;16.77;65.09;96549.53;4096792;34;20373;-85
2022/05/16 03:48:26;;;;;;;;;;;17.60;69.70;;;16.78;65.14;96561.44;4095556;34;20122;-85
2022/05/16 03:50:54;;;;;;;;;;;17.60;69.60;;;16.79;65.18;96558.38;4073460;34;20159;-86
2022/05/16 03:53:23;;;;;;;;;;;17.60;69.60;;;16.80;65.11;96557.25;4073502;34;20131;-85
2022/05/16 03:55:51;;;;;;;;;;;17.60;69.70;;;16.81;65.35;96564.41;4073472;34;20138;-85
2022/05/16 03:58:20;;;;;;;;;;;17.60;69.90;;;16.83;65.49;96564.94;4073326;34;19905;-85
2022/05/16 04:00:49;;;;;;;;;;;17.60;70.00;;;16.84;65.32;96552.75;4073586;34;19916;-86
2022/05/16 04:03:19;;;;;;;;;;;17.60;69.90;;;16.85;65.64;96562.66;4073479;34;20006;-84
2022/05/16 04:06:19;;;;;;;;;;;17.70;70.10;;;16.87;65.64;96562.38;4073571;34;20177;-85
2022/05/16 04:08:47;;;;;;;;;;;17.70;70.20;;;16.88;65.77;96559.31;4095472;34;20160;-85
2022/05/16 04:11:34;;;;;;;;;;;17.70;70.50;;;16.90;65.61;96559.03;4095538;34;20152;-86
2022/05/16 04:14:03;;;;;;;;;;;17.70;70.40;;;16.92;65.93;96561.47;4073358;34;20489;-86
2022/05/16 04:16:32;;;;;;;;;;;17.80;70.50;;;16.93;65.91;96557.59;4072990;34;19905;-86
2022/05/16 04:19:02;;;;;;;;;;;17.80;70.70;;;16.96;66.09;96568.09;4097681;34;19984;-85
2022/05/16 04:21:30;;;;;;;;;;;17.80;70.60;;;16.96;65.81;96562.56;4075646;34;20247;-86
2022/05/16 04:24:01;;;;;;;;;;;17.80;70.40;;;16.98;65.76;96560.28;4097694;34;20109;-86
2022/05/16 04:26:29;;;;;;;;;;;17.70;70.20;;;16.99;66.23;96570.22;4075137;34;20032;-85
2022/05/16 04:28:58;;;;;;;;;;;17.80;70.50;;;17.02;66.06;96566.84;4097730;34;20290;-86
2022/05/16 04:31:27;;;;;;;;;;;17.80;70.70;;;17.04;66.48;96561.84;4075435;34;20033;-87
2022/05/16 04:33:55;;;;;;;;;;;17.90;70.90;;;17.05;66.33;96571.78;4075627;34;19904;-86
2022/05/16 04:36:25;;;;;;;;;;;17.90;71.00;;;17.06;66.18;96573.44;4075146;34;19956;-86
2022/05/16 04:38:54;;;;;;;;;;;17.90;70.90;;;17.09;66.25;96578.38;4098280;34;20102;-85
2022/05/16 04:44:08;;;;;;;;;;;17.90;70.20;;;17.12;64.99;96577.72;4075216;34;20173;-86
2022/05/16 04:46:37;;;;;;;;;;;17.90;69.40;;;17.15;65.49;96574.38;4097803;34;19905;-86
2022/05/16 04:49:05;;;;;;;;;;;18.00;69.80;;;17.17;64.87;96580.41;4074988;34;19916;-85
2022/05/16 04:51:35;;;;;;;;;;;18.00;69.20;;;17.21;65.77;96588.13;4075339;34;20260;-86
2022/05/16 04:54:04;;;;;;;;;;;18.00;70.20;;;17.21;65.78;96585.34;4075126;34;19905;-85
2022/05/16 04:56:33;;;;;;;;;;;18.00;70.20;;;17.24;65.73;96584.72;4096773;34;20200;-86
2022/05/16 04:59:02;;;;;;;;;;;18.10;70.30;;;17.24;65.26;96587.47;4075005;34;20066;-86
2022/05/16 05:01:30;;;;;;;;;;;18.10;69.70;;;17.26;65.33;96582.47;4097057;34;19908;-86
2022/05/16 05:03:59;;;;;;;;;;;18.10;69.80;;;17.28;65.54;96583.84;4074984;34;20461;-87
2022/05/16 05:06:28;;;;;;;;;;;18.10;69.90;;;17.28;65.55;96577.47;4074869;34;20076;-85
2022/05/16 05:08:58;;;;;;;;;;;18.10;69.90;;;17.29;65.69;96587.41;4075086;34;19927;-85
2022/05/16 05:16:58;;;;;;;;;;;18.10;70.20;;;17.29;65.77;96587.41;4074489;34;19905;-86
2022/05/16 05:19:27;;;;;;;;;;;18.10;70.20;;;17.31;65.84;96590.69;4075328;34;19961;-87
2022/05/16 05:21:56;;;;;;;;;;;18.10;70.20;;;17.31;65.80;96588.72;4075059;34;20086;-86
2022/05/16 05:24:26;;;;;;;;;;;18.20;70.20;;;17.33;65.74;96599.50;4075062;34;20342;-86
2022/05/16 05:26:54;;;;;;;;;;;18.20;70.10;;;17.33;65.70;96599.50;4074468;34;19905;-87
2022/05/16 05:29:23;;;;;;;;;;;18.20;70.10;;;17.33;65.58;96593.97;4074069;34;19909;-87
2022/05/16 05:31:52;;;;;;;;;;;18.20;70.00;;;17.37;65.58;96589.47;4074830;34;20050;-87
2022/05/16 05:34:20;;;;;;;;;;;18.20;69.90;;;17.38;65.67;96596.63;4096867;34;19904;-86
2022/05/16 05:36:50;;;;;;;;;;;18.20;69.90;;;17.40;65.64;96594.38;4074483;34;20018;-85
2022/05/16 05:39:20;;;;;;;;;;;18.20;69.70;;;17.44;65.41;96602.91;4074595;34;20254;-86
2022/05/16 05:41:53;;;;;;;;;;;18.30;69.90;;;17.45;65.32;96597.06;4074689;34;19905;-86
2022/05/16 05:44:22;;;;;;;;;;;18.30;69.70;;;17.50;65.40;96607.22;4096751;34;20244;-86
2022/05/16 05:46:51;;;;;;;;;;;18.30;69.80;;;17.54;65.22;96599.13;4074152;34;19905;-86
2022/05/16 05:49:20;;;;;;;;;;;18.30;69.70;;;17.58;65.07;96597.38;4074286;34;20066;-86
2022/05/16 05:51:48;;;;;;;;;;;18.40;69.70;;;17.59;65.19;96599.03;4097634;34;19980;-85
2022/05/16 05:54:17;;;;;;;;;;;18.40;69.70;;;17.62;65.36;96603.97;4096665;34;19905;-87
2022/05/16 05:56:46;;;;;;;;;;;18.40;69.70;;;17.62;65.17;96595.66;4096151;34;20165;-87
2022/05/16 05:59:16;;;;;;;;;;;18.40;69.70;;;17.66;65.21;96596.66;4074329;34;20148;-87
2022/05/16 06:01:47;;;;;;;;;;;18.50;69.70;;;17.67;65.22;96598.31;4074585;34;20028;-86
2022/05/16 06:04:16;;;;;;;;;;;18.50;69.70;;;17.70;65.24;96602.41;4074474;34;19920;-86
2022/05/16 06:06:46;;;;;;;;;;;18.50;69.70;;;17.70;65.11;96600.47;4096146;34;20038;-86
2022/05/16 06:09:17;;;;;;;;;;;18.50;69.70;;;17.73;64.80;96608.19;4096433;34;20384;-87
2022/05/16 06:11:48;;;;;;;;;;;18.50;69.50;;;17.74;65.19;96603.44;4074362;34;20025;-86
2022/05/16 06:14:18;;;;;;;;;;;18.50;69.60;;;17.73;65.17;96594.34;4096373;34;19976;-86
2022/05/16 06:16:47;;;;;;;;;;;18.60;69.60;;;17.76;65.01;96607.53;4095875;34;19911;-86
2022/05/16 06:19:15;;;;;;;;;;;18.60;69.50;;;17.79;65.13;96606.94;4074186;34;19911;-87
2022/05/16 06:21:44;;;;;;;;;;;18.60;69.40;;;17.81;65.10;96603.88;4074386;34;19905;-86
2022/05/16 06:26:55;;;;;;;;;;;18.60;69.30;;;17.83;65.02;96595.25;4073682;34;20033;-86
2022/05/16 06:29:25;;;;;;;;;;;18.60;69.20;;;17.87;64.88;96612.91;4074310;34;20286;-86
2022/05/16 06:31:54;;;;;;;;;;;18.60;69.20;;;17.88;64.94;96604.25;4096336;34;20220;-87
2022/05/16 06:34:22;;;;;;;;;;;18.70;69.30;;;17.90;64.75;96606.72;4096401;34;20277;-86
2022/05/16 06:36:51;;;;;;;;;;;18.70;69.20;;;17.91;64.80;96603.66;4074015;34;19904;-86
2022/05/16 06:39:19;;;;;;;;;;;18.70;69.20;;;17.91;64.67;96613.91;4074361;34;19905;-86
2022/05/16 06:41:49;;;;;;;;;;;18.70;69.20;;;17.92;65.14;96610.84;4096278;34;19997;-87
2022/05/16 06:44:19;;;;;;;;;;;18.70;69.20;;;17.93;64.69;96606.94;4074716;34;20150;-86
2022/05/16 06:46:49;;;;;;;;;;;18.70;69.10;;;17.95;64.77;96606.63;4073761;34;20132;-86
2022/05/16 06:49:17;;;;;;;;;;;18.70;69.10;;;17.93;64.75;96595.88;4074070;34;19912;-86
2022/05/16 06:51:46;;;;;;;;;;;18.70;69.20;;;17.96;64.75;96608.28;4096298;34;20110;-86
2022/05/16 06:54:15;;;;;;;;;;;18.70;69.20;;;17.97;64.91;96601.63;4074087;34;19905;-86
2022/05/16 06:56:43;;;;;;;;;;;18.70;69.10;;;17.98;64.66;96600.50;4073788;34;20146;-86
2022/05/16 06:59:12;;;;;;;;;;;18.70;69.20;;;18.00;64.79;96609.34;4074215;34;19905;-86
2022/05/16 07:01:41;;;;;;;;;;;18.70;69.10;;;18.04;64.77;96609.53;4074178;34;19904;-86
2022/05/16 07:04:11;;;;;;;;;;;18.80;69.10;;;18.05;64.68;96611.97;4052396;34;19905;-86
2022/05/16 07:06:41;;;;;;;;;;;18.80;69.10;;;18.07;64.51;96601.41;4096666;34;19912;-87
2022/05/16 07:09:10;;;;;;;;;;;18.80;68.90;;;18.13;64.37;96606.84;4074178;34;20040;-86
2022/05/16 07:11:39;;;;;;;;;;;18.80;68.80;;;18.12;64.21;96603.25;4065071;34;20131;-85
2022/05/16 07:14:07;;;;;;;;;;;18.90;68.90;;;18.14;64.38;96605.72;4097061;34;19904;-86
2022/05/16 07:16:36;;;;;;;;;;;18.90;68.80;;;18.16;64.17;96608.97;4073551;34;19911;-86
2022/05/16 07:19:04;;;;;;;;;;;18.90;68.70;;;18.17;64.07;96605.09;4073907;34;20380;-86
2022/05/16 07:21:35;;;;;;;;;;;18.90;68.70;;;18.18;64.38;96606.72;4073803;34;20020;-86
2022/05/16 07:24:03;;;;;;;;;;;18.90;68.70;;;18.18;64.25;96598.41;4073694;34;19904;-86
2022/05/16 07:29:18;;;;;;;;;;;18.90;68.60;;;18.18;64.35;96595.66;4073890;34;19904;-86
2022/05/16 07:31:47;;;;;;;;;;;18.90;68.60;;;18.17;64.16;96605.09;4095823;34;20146;-87
2022/05/16 07:34:15;;;;;;;;;;;18.90;68.70;;;18.17;64.28;96610.63;4074002;34;19912;-86
2022/05/16 07:36:45;;;;;;;;;;;18.90;68.70;;;18.15;64.45;96597.09;4073547;34;19912;-86
2022/05/16 07:39:14;;;;;;;;;;;18.90;68.70;;;18.17;64.37;96605.09;4095909;34;19905;-86
2022/05/16 07:41:43;;;;;;;;;;;18.90;68.70;;;18.14;64.20;96600.19;4069337;34;20148;-87
2022/05/16 07:44:12;;;;;;;;;;;18.90;68.80;;;18.16;64.36;96587.66;4047996;35;20174;-86
2022/05/16 07:46:41;;;;;;;;;;;18.90;68.80;;;18.15;64.42;96597.09;4047256;35;20124;-86
2022/05/16 07:49:13;;;;;;;;;;;18.90;68.80;;;18.17;64.42;96596.78;4070303;35;19938;-87
2022/05/16 07:51:42;;;;;;;;;;;18.90;68.80;;;18.18;64.50;96595.66;4047962;34;19907;-87
2022/05/16 07:54:12;;;;;;;;;;;18.90;68.80;;;18.17;64.58;96594.84;4071865;34;19958;-87
2022/05/16 07:56:41;;;;;;;;;;;18.90;68.90;;;18.19;64.32;96598.13;4028236;34;19905;-87
2022/05/16 07:59:09;;;;;;;;;;;18.90;68.80;;;18.20;64.37;96598.94;4028810;34;19905;-87
2022/05/16 08:01:38;;;;;;;;;;;18.90;68.70;;;18.21;64.48;96589.50;4028476;34;20101;-87
2022/05/16 08:04:07;;;;;;;;;;;18.90;68.70;;;18.21;64.36;96590.28;4071823;34;20144;-88
2022/05/16 08:06:35;;;;;;;;;;;19.00;68.60;;;18.20;64.31;96587.84;4072314;34;20178;-87
2022/05/16 08:11:52;;;;;;;;;;;18.90;68.80;;;18.21;64.17;96589.50;4050008;34;20239;-86
2022/05/16 08:14:21;;;;;;;;;;;19.00;68.70;;;18.22;64.29;96588.34;4050021;34;20222;-87
2022/05/16 08:16:50;;;;;;;;;;;19.00;68.70;;;18.21;64.25;96589.50;4049490;34;20101;-87
2022/05/16 08:19:19;;;;;;;;;;;18.90;69.50;;;18.22;64.13;96585.59;4049994;34;20026;-87
2022/05/16 08:21:48;;;;;;;;;;;19.00;68.70;;;18.21;64.38;96590.28;4049865;34;20144;-87
2022/05/16 08:24:17;;;;;;;;;;;19.00;68.70;;;18.19;64.32;96586.19;4049966;34;20032;-87
2022/05/16 08:26:46;;;;;;;;;;;19.00;68.80;;;18.19;64.22;96580.66;4053873;34;19933;-87
2022/05/16 08:29:16;;;;;;;;;;;19.00;68.80;;;18.17;64.45;96578.22;4075837;34;20351;-87
2022/05/16 08:31:44;;;;;;;;;;;18.90;68.80;;;18.17;64.54;96580.97;4097998;34;19905;-87
2022/05/16 08:34:13;;;;;;;;;;;18.90;68.80;;;18.15;64.64;96574.09;4098062;34;19904;-87
2022/05/16 08:42:14;;;;;;;;;;;18.90;68.90;;;18.12;64.56;96574.75;4075843;34;19904;-86
2022/05/16 08:44:50;;;;;;;;;;;18.90;69.00;;;18.10;64.65;96575.03;4097870;34;19904;-87
2022/05/16 08:47:41;;;;;;;;;;;18.90;69.10;;;18.07;64.82;96576.47;4075561;34;19905;-87
2022/05/16 08:50:13;;;;;;;;;;;18.90;69.20;;;18.07;64.90;96573.72;4097869;34;19911;-86
2022/05/16 08:52:46;;;;;;;;;;;18.90;69.20;;;18.07;64.80;96570.94;4075743;34;19910;-86
2022/05/16 08:55:25;;;;;;;;;;;18.90;69.20;;;18.06;64.76;96569.28;4075779;34;20065;-88
2022/05/16 08:57:57;;;;;;;;;;;18.80;69.10;;;18.06;64.87;96566.53;4097247;34;19904;-87
2022/05/16 09:00:32;;;;;;;;;;;18.80;69.10;;;18.04;64.88;96560.47;4098013;34;20059;-88
2022/05/16 09:03:16;;;;;;;;;;;18.90;69.20;;;18.06;64.84;96574.84;4097591;34;19920;-87
2022/05/16 09:05:48;;;;;;;;;;;18.80;69.20;;;18.05;65.08;96567.66;4075710;34;19904;-87
2022/05/16 09:08:39;;;;;;;;;;;18.90;69.30;;;18.06;64.84;96560.19;4075328;34;19976;-87
2022/05/16 09:11:10;;;;;;;;;;;18.90;69.30;;;18.04;64.79;96556.91;4075551;34;19905;-87
2022/05/16 09:13:51;;;;;;;;;;;18.80;69.30;;;18.04;64.93;96560.47;4075433;34;19909;-87
2022/05/16 09:16:45;;;;;;;;;;;18.90;69.40;;;18.06;65.00;96566.53;4075077;34;19904;-87
2022/05/16 09:19:47;;;;;;;;;;;18.90;69.40;;;18.06;64.83;96560.19;4066765;34;19905;-87
2022/05/16 09:22:24;;;;;;;;;;;18.80;69.30;;;18.05;64.99;96559.34;4072575;34;19972;-87
2022/05/16 09:24:53;;;;;;;;;;;18.90;69.50;;;;;;4075079;34;19904;-87
2022/05/16 09:30:10;;;;;;;;;;;18.90;69.50;;;18.08;65.10;96558.72;4076174;34;19927;-86
2022/05/16 09:32:43;;;;;;;;;;;18.90;69.40;;;18.06;64.91;96544.34;4097508;34;19991;-87
2022/05/16 09:35:20;;;;;;;;;;;18.90;69.40;;;18.10;64.87;96544.56;4075361;34;19912;-87
2022/05/16 09:37:49;;;;;;;;;;;18.90;69.40;;;18.08;65.02;96550.41;4096811;34;19912;-87
2022/05/16 09:40:17;;;;;;;;;;;18.90;69.40;;;18.07;65.12;96542.44;4097209;34;20251;-88
2022/05/16 09:42:47;;;;;;;;;;;18.90;69.40;;;18.07;65.08;96540.47;4097029;34;19916;-88
2022/05/16 09:45:23;;;;;;;;;;;18.90;69.40;;;18.09;65.02;96552.06;4053277;34;19909;-87
2022/05/16 09:47:53;;;;;;;;;;;18.90;69.40;;;18.10;65.09;96547.31;4097506;34;19927;-87
2022/05/16 09:50:27;;;;;;;;;;;18.90;69.30;;;18.07;65.04;96543.22;4075071;34;19927;-87
2022/05/16 09:53:42;;;;;;;;;;;18.90;69.40;;;18.08;65.10;96536.56;4075192;34;20123;-87
2022/05/16 09:56:20;;;;;;;;;;;18.90;69.30;;;18.08;65.07;96539.34;4074791;34;20084;-88
2022/05/16 09:59:00;;;;;;;;;;;18.90;69.40;;;18.10;65.14;96536.25;4075145;34;20120;-87
2022/05/16 10:01:34;;;;;;;;;;;18.90;69.40;;;18.06;65.15;96526.94;4098056;34;19905;-88
2022/05/16 10:04:20;;;;;;;;;;;18.90;69.50;;;18.07;65.14;96529.38;4075174;34;19905;-88
2022/05/16 10:06:57;;;;;;;;;;;18.90;69.30;;;18.08;65.20;96531.03;4096577;34;19911;-88
2022/05/16 10:09:48;;;;;;;;;;;18.90;69.30;;;18.07;64.90;96523.84;4075048;34;19904;-88
2022/05/16 10:12:21;;;;;;;;;;;18.90;69.30;;;18.08;65.03;96525.47;4068682;34;20152;-87
2022/05/16 10:14:53;;;;;;;;;;;18.90;69.30;;;18.07;65.05;96523.84;4096356;34;20058;-87
2022/05/16 10:17:30;;;;;;;;;;;18.90;69.40;;;18.07;64.97;96523.84;4074336;34;19908;-87
2022/05/16 10:20:06;;;;;;;;;;;18.90;69.40;;;18.06;64.96;96513.09;4096932;34;20385;-87
2022/05/16 10:22:35;;;;;;;;;;;18.90;69.30;;;18.07;64.80;96512.75;4097073;34;20115;-87
2022/05/16 10:25:10;;;;;;;;;;;18.90;69.40;;;18.05;65.13;96506.69;4096682;34;20136;-87
2022/05/16 10:27:42;;;;;;;;;;;18.90;69.50;;;18.07;64.97;96503.63;4074421;34;19904;-87
2022/05/16 10:30:21;;;;;;;;;;;18.90;69.40;;;18.06;65.29;96504.78;4074675;34;19927;-87
2022/05/16 10:35:46;;;;;;;;;;;18.90;69.50;;;18.04;65.17;96502.28;4074786;34;20325;-88
2022/05/16 10:38:24;;;;;;;;;;;18.90;69.50;;;18.04;65.34;96502.28;4074271;34;19905;-86
2022/05/16 10:40:57;;;;;;;;;;;18.90;69.50;;;18.06;65.29;96504.78;4096635;34;20109;-87
2022/05/16 10:43:42;;;;;;;;;;;18.90;69.60;;;18.04;65.28;96501.47;4096756;34;20267;-86
2022/05/16 10:46:14;;;;;;;;;;;18.90;69.60;;;18.04;65.03;96499.53;4074308;34;19911;-87
2022/05/16 10:48:52;;;;;;;;;;;18.90;69.50;;;18.03;65.17;96497.06;4074495;34;19912;-87
2022/05/16 10:51:26;;;;;;;;;;;18.80;69.50;;;18.02;65.43;96499.00;4074423;34;20150;-88
2022/05/16 10:54:10;;;;;;;;;;;18.80;69.60;;;17.98;65.26;96498.00;4074464;34;20164;-87
2022/05/16 10:57:16;;;;;;;;;;;18.80;69.70;;;17.97;65.46;96490.84;4096064;34;19912;-88
2022/05/16 10:59:58;;;;;;;;;;;18.80;69.80;;;17.98;65.67;96498.00;4063519;34;19911;-87
2022/05/16 11:02:43;;;;;;;;;;;18.80;69.80;;;17.99;65.38;96490.50;4096546;34;20131;-87
2022/05/16 11:05:27;;;;;;;;;;;18.80;69.80;;;17.97;65.37;96481.66;4095598;34;19906;-87
2022/05/16 11:08:03;;;;;;;;;;;18.80;69.80;;;17.98;65.51;96486.09;4096003;34;20105;-87
2022/05/16 11:10:35;;;;;;;;;;;18.80;69.70;;;17.94;65.40;96480.34;4069040;34;20106;-88
2022/05/16 11:13:26;;;;;;;;;;;18.80;69.80;;;17.96;65.56;96483.63;4073589;34;19912;-88
2022/05/16 11:16:01;;;;;;;;;;;18.80;69.90;;;17.95;65.33;96481.97;4073917;34;19905;-90
2022/05/16 11:18:35;;;;;;;;;;;18.80;70.00;;;17.95;65.40;96474.47;4074418;34;19904;-88
2022/05/16 11:21:13;;;;;;;;;;;18.80;70.00;;;17.95;65.74;96479.22;4052708;34;19904;-88
2022/05/16 11:23:51;;;;;;;;;;;18.80;70.00;;;17.95;65.50;96470.91;4074397;34;19979;-87
2022/05/16 11:26:23;;;;;;;;;;;18.80;70.00;;;17.94;65.59;96469.25;4051441;34;20152;-88
2022/05/16 11:31:53;;;;;;;;;;;18.80;69.80;;;17.97;65.33;96465.91;4049545;34;20042;-87
2022/05/16 11:34:34;;;;;;;;;;;18.80;69.80;;;17.96;65.32;96467.00;4052604;34;20024;-86
2022/05/16 11:37:15;;;;;;;;;;;18.80;69.80;;;17.97;65.36;96468.66;4052143;34;20309;-87
2022/05/16 11:39:49;;;;;;;;;;;18.80;69.80;;;17.97;65.58;96465.91;4074241;34;19986;-87
2022/05/16 11:42:33;;;;;;;;;;;18.80;69.90;;;17.96;65.67;96461.47;4052445;34;19912;-87
2022/05/16 11:45:17;;;;;;;;;;;18.80;70.00;;;17.93;65.73;96451.84;4073946;34;20029;-86
2022/05/16 11:47:49;;;;;;;;;;;18.80;70.00;;;17.93;65.68;96457.38;4052096;34;20009;-87
2022/05/16 11:50:26;;;;;;;;;;;18.80;70.10;;;17.94;65.75;96449.88;4052354;34;20206;-87
2022/05/16 11:52:59;;;;;;;;;;;18.80;70.10;;;17.94;65.73;96441.56;4095902;34;19999;-87
2022/05/16 12:01:05;;;;;;;;;;;18.80;69.90;;;17.97;65.57;96440.97;4074049;34;20494;-88
2022/05/16 12:03:36;;;;;;;;;;;18.80;70.00;;;17.96;65.73;96444.84;4052210;34;19905;-87
2022/05/16 12:06:26;;;;;;;;;;;18.80;70.00;;;17.98;65.63;96447.31;4051834;34;20057;-87
2022/05/16 12:09:19;;;;;;;;;;;18.80;70.00;;;17.99;65.48;96446.19;4096124;34;19931;-88
2022/05/16 12:11:56;;;;;;;;;;;18.80;70.00;;;17.96;65.38;96428.22;4096072;34;19904;-87
2022/05/16 12:14:29;;;;;;;;;;;18.70;69.90;;;17.96;65.47;96425.44;4073966;34;20494;-87
2022/05/16 12:17:02;;;;;;;;;;;18.80;69.90;;;17.95;65.48;96429.34;4067265;34;20131;-88
2022/05/16 12:19:33;;;;;;;;;;;18.80;69.90;;;17.94;65.63;96420.22;4096749;34;20267;-87
2022/05/16 12:22:06;;;;;;;;;;;18.80;70.00;;;17.99;65.32;96426.81;4073852;34;20212;-86
2022/05/16 12:24:44;;;;;;;;;;;18.80;69.90;;;17.96;65.68;96422.69;4073662;34;20258;-87
2022/05/16 12:27:29;;;;;;;;;;;18.80;69.90;;;17.97;65.76;96412.41;4078836;34;19915;-87
2022/05/16 12:30:01;;;;;;;;;;;18.80;69.90;;;17.98;65.73;96420.44;4073828;34;20079;-87